createdAt,value
2017-11-04T00:00:09.706Z,23.65
2017-11-04T00:02:36.461Z,24.08
2017-11-04T00:05:03.233Z,24.12
2017-11-04T00:07:31.305Z,23.10
2017-11-04T00:09:58.797Z,22.42
2017-11-04T00:12:25.456Z,22.85
2017-11-04T00:14:52.122Z,22.83
2017-11-04T00:17:18.778Z,23.15
2017-11-04T00:19:45.438Z,22.73
2017-11-04T00:22:12.202Z,21.60
2017-11-04T00:24:38.964Z,22.60
2017-11-04T00:27:05.612Z,22.17
2017-11-04T00:29:33.104Z,22.60
2017-11-04T00:31:59.770Z,22.80
2017-11-04T00:34:26.531Z,22.35
2017-11-04T00:36:53.187Z,21.80
2017-11-04T00:39:19.853Z,22.92
2017-11-04T00:41:46.423Z,21.52
2017-11-04T00:44:13.174Z,23.10
2017-11-04T00:46:39.934Z,22.23
2017-11-04T00:49:06.594Z,22.00
2017-11-04T00:51:33.255Z,21.37
2017-11-04T00:53:59.919Z,22.02
2017-11-04T00:56:26.683Z,20.80
2017-11-04T00:58:53.338Z,21.20
2017-11-04T01:01:20.000Z,20.27
2017-11-04T01:03:46.559Z,19.90
2017-11-04T01:06:13.222Z,20.12
2017-11-04T01:08:39.779Z,20.10
2017-11-04T01:11:06.438Z,20.83
2017-11-04T01:13:33.304Z,21.00
2017-11-04T01:15:59.862Z,20.80
2017-11-04T01:18:26.624Z,20.42
2017-11-04T01:20:53.286Z,20.70
2017-11-04T01:23:19.844Z,20.40
2017-11-04T01:25:46.506Z,20.10
2017-11-04T01:28:13.168Z,19.70
2017-11-04T01:30:39.825Z,20.27
2017-11-04T01:33:06.591Z,20.60
2017-11-04T01:35:33.557Z,18.92
2017-11-04T01:38:00.117Z,18.12
2017-11-04T01:40:26.777Z,17.83
2017-11-04T01:42:53.241Z,18.67
2017-11-04T01:45:19.792Z,18.58
2017-11-04T01:47:46.555Z,19.60
2017-11-04T01:50:13.091Z,20.75
2017-11-04T01:52:40.387Z,19.08
2017-11-04T01:55:06.946Z,19.50
2017-11-04T01:57:33.834Z,18.87
2017-11-04T02:00:00.575Z,19.00
2017-11-04T02:02:27.236Z,20.13
2017-11-04T02:04:53.792Z,18.62
2017-11-04T02:07:21.601Z,19.08
2017-11-04T02:09:48.344Z,19.55
2017-11-04T02:12:14.814Z,19.30
2017-11-04T02:14:41.268Z,19.00
2017-11-04T02:17:07.816Z,18.95
2017-11-04T02:19:34.352Z,18.85
2017-11-04T02:22:01.753Z,19.30
2017-11-04T02:24:28.372Z,19.37
2017-11-04T02:26:55.568Z,19.00
2017-11-04T02:29:22.960Z,19.60
2017-11-04T02:31:50.442Z,20.10
2017-11-04T02:34:16.930Z,19.55
2017-11-04T02:36:43.454Z,18.87
2017-11-04T02:39:10.009Z,20.10
2017-11-04T02:41:36.572Z,20.12
2017-11-04T02:44:03.132Z,18.70
2017-11-04T02:46:29.598Z,19.23
2017-11-04T02:48:56.025Z,19.60
2017-11-04T02:51:23.925Z,19.55
2017-11-04T02:53:51.094Z,19.62
2017-11-04T02:56:18.375Z,20.58
2017-11-04T02:58:45.578Z,19.12
2017-11-04T03:01:12.050Z,20.60
2017-11-04T03:03:38.565Z,20.37
2017-11-04T03:06:05.120Z,19.35
2017-11-04T03:08:32.394Z,19.87
2017-11-04T03:10:59.673Z,19.98
2017-11-04T03:13:26.225Z,18.98
2017-11-04T03:15:53.506Z,19.92
2017-11-04T03:18:19.984Z,20.12
2017-11-04T03:20:46.491Z,20.00
2017-11-04T03:23:13.074Z,19.90
2017-11-04T03:25:39.511Z,19.50
2017-11-04T03:28:05.971Z,19.80
2017-11-04T03:30:33.571Z,18.83
2017-11-04T03:33:00.127Z,20.20
2017-11-04T03:35:27.337Z,20.25
2017-11-04T03:37:53.856Z,19.48
2017-11-04T03:40:21.054Z,19.70
2017-11-04T03:42:47.593Z,19.98
2017-11-04T03:45:14.073Z,19.73
2017-11-04T03:47:40.600Z,20.10
2017-11-04T03:50:07.168Z,20.98
2017-11-04T03:52:33.875Z,21.08
2017-11-04T03:55:00.380Z,20.48
2017-11-04T03:57:27.590Z,20.10
2017-11-04T03:59:54.018Z,20.85
2017-11-04T04:02:20.565Z,21.80
2017-11-04T04:04:47.226Z,21.20
2017-11-04T04:07:14.609Z,20.25
2017-11-04T04:09:41.036Z,21.20
2017-11-04T04:12:07.559Z,21.95
2017-11-04T04:14:34.024Z,21.98
2017-11-04T04:17:00.488Z,22.23
2017-11-04T04:19:26.939Z,20.57
2017-11-04T04:21:53.394Z,20.70
2017-11-04T04:24:19.851Z,21.45
2017-11-04T04:26:46.287Z,21.33
2017-11-04T04:29:12.811Z,22.42
2017-11-04T04:31:39.964Z,22.23
2017-11-04T04:34:07.262Z,22.50
2017-11-04T04:36:33.772Z,21.70
2017-11-04T04:39:00.312Z,22.90
2017-11-04T04:41:26.932Z,24.65
2017-11-04T04:43:54.173Z,23.52
2017-11-04T04:46:21.482Z,23.20
2017-11-04T04:48:48.668Z,23.62
2017-11-04T04:51:15.317Z,24.12
2017-11-04T04:53:41.804Z,24.87
2017-11-04T04:56:08.330Z,25.40
2017-11-04T04:58:34.761Z,25.35
2017-11-04T05:01:01.242Z,24.17
2017-11-04T05:03:28.520Z,24.30
2017-11-04T05:05:55.075Z,25.23
2017-11-04T05:08:21.632Z,25.50
2017-11-04T05:10:48.109Z,25.33
2017-11-04T05:13:14.729Z,24.80
2017-11-04T05:15:41.167Z,26.02
2017-11-04T05:18:07.765Z,25.73
2017-11-04T05:20:35.505Z,25.27
2017-11-04T05:23:02.008Z,26.55
2017-11-04T05:25:28.473Z,28.40
2017-11-04T05:27:55.125Z,31.45
2017-11-04T05:30:21.683Z,30.25
2017-11-04T05:32:48.957Z,28.75
2017-11-04T05:35:16.131Z,28.02
2017-11-04T05:37:42.583Z,27.62
2017-11-04T05:40:09.144Z,25.50
2017-11-04T05:42:36.420Z,26.05
2017-11-04T05:45:02.976Z,26.92
2017-11-04T05:47:32.296Z,25.27
2017-11-04T05:49:59.553Z,25.83
2017-11-04T05:52:26.845Z,26.13
2017-11-04T05:54:54.077Z,31.33
2017-11-04T05:57:20.683Z,30.88
2017-11-04T05:59:50.815Z,31.80
2017-11-04T06:02:18.069Z,32.50
2017-11-04T06:04:45.312Z,31.73
2017-11-04T06:07:11.924Z,33.10
2017-11-04T06:09:40.631Z,34.50
2017-11-04T06:12:07.102Z,31.48
2017-11-04T06:14:33.764Z,29.70
2017-11-04T06:17:00.305Z,26.90
2017-11-04T06:19:28.704Z,26.50
2017-11-04T06:21:55.369Z,27.37
2017-11-04T06:24:21.832Z,26.20
2017-11-04T06:26:48.485Z,26.30
2017-11-04T06:29:26.088Z,27.55
2017-11-04T06:31:52.643Z,43.78
2017-11-04T06:34:19.918Z,106.47
2017-11-04T06:36:46.378Z,70.50
2017-11-04T06:39:12.829Z,46.75
2017-11-04T06:41:40.161Z,34.40
2017-11-04T06:44:06.566Z,32.28
2017-11-04T06:46:33.049Z,31.15
2017-11-04T06:48:59.547Z,30.40
2017-11-04T06:51:27.157Z,29.87
2017-11-04T06:53:53.722Z,30.42
2017-11-04T06:56:20.276Z,28.20
2017-11-04T06:58:46.937Z,26.90
2017-11-04T07:01:13.597Z,26.40
2017-11-04T07:03:40.809Z,26.10
2017-11-04T07:06:07.327Z,24.73
2017-11-04T07:08:33.953Z,24.00
2017-11-04T07:11:04.229Z,23.10
2017-11-04T07:13:30.707Z,24.05
2017-11-04T07:15:57.273Z,22.98
2017-11-04T07:18:23.801Z,21.77
2017-11-04T07:20:50.359Z,20.48
2017-11-04T07:23:17.737Z,20.08
2017-11-04T07:25:44.298Z,20.58
2017-11-04T07:28:10.735Z,22.70
2017-11-04T07:30:48.954Z,21.30
2017-11-04T07:33:16.452Z,22.40
2017-11-04T07:35:43.187Z,20.95
2017-11-04T07:38:10.300Z,21.90
2017-11-04T07:40:40.828Z,23.25
2017-11-04T07:43:07.389Z,21.77
2017-11-04T07:45:33.880Z,21.48
2017-11-04T07:48:00.399Z,21.55
2017-11-04T07:50:28.810Z,22.75
2017-11-04T07:52:55.289Z,31.50
2017-11-04T07:55:21.815Z,26.17
2017-11-04T07:57:49.089Z,19.65
2017-11-04T08:00:16.681Z,17.33
2017-11-04T08:02:43.228Z,17.15
2017-11-04T08:05:09.689Z,17.40
2017-11-04T08:07:36.668Z,17.40
2017-11-04T08:10:03.815Z,20.30
2017-11-04T08:12:31.406Z,17.70
2017-11-04T08:14:57.860Z,17.35
2017-11-04T08:17:25.113Z,15.98
2017-11-04T08:19:51.570Z,17.17
2017-11-04T08:22:18.049Z,17.50
2017-11-04T08:24:44.710Z,17.00
2017-11-04T08:27:11.272Z,15.65
2017-11-04T08:29:37.788Z,15.50
2017-11-04T08:32:04.488Z,16.10
2017-11-04T08:34:31.045Z,16.30
2017-11-04T08:36:58.320Z,17.05
2017-11-04T08:39:24.878Z,16.87
2017-11-04T08:41:51.357Z,16.52
2017-11-04T08:44:17.998Z,15.83
2017-11-04T08:46:44.658Z,16.20
2017-11-04T08:49:11.317Z,16.00
2017-11-04T08:51:37.976Z,16.10
2017-11-04T08:54:05.220Z,18.98
2017-11-04T08:56:31.687Z,16.70
2017-11-04T08:58:58.369Z,15.68
2017-11-04T09:01:25.643Z,15.55
2017-11-04T09:03:53.802Z,16.30
2017-11-04T09:06:20.244Z,17.35
2017-11-04T09:08:46.658Z,15.80
2017-11-04T09:11:13.206Z,15.50
2017-11-04T09:13:40.588Z,14.80
2017-11-04T09:16:07.092Z,16.42
2017-11-04T09:18:33.604Z,15.15
2017-11-04T09:21:00.262Z,14.82
2017-11-04T09:23:26.818Z,15.40
2017-11-04T09:25:53.377Z,15.10
2017-11-04T09:28:19.935Z,15.52
2017-11-04T09:30:47.969Z,15.98
2017-11-04T09:33:14.485Z,17.23
2017-11-04T09:35:40.945Z,15.68
2017-11-04T09:38:07.496Z,15.30
2017-11-04T09:40:34.055Z,15.32
2017-11-04T09:43:01.243Z,15.57
2017-11-04T09:45:27.741Z,14.80
2017-11-04T09:47:54.243Z,14.35
2017-11-04T09:50:21.517Z,15.25
2017-11-04T09:52:48.772Z,15.35
2017-11-04T09:55:15.251Z,13.90
2017-11-04T09:57:42.487Z,14.80
2017-11-04T10:00:09.083Z,15.52
2017-11-04T10:02:36.274Z,15.40
2017-11-04T10:05:03.534Z,15.63
2017-11-04T10:07:30.813Z,14.00
2017-11-04T10:09:57.566Z,29.67
2017-11-04T10:12:24.914Z,13.98
2017-11-04T10:14:52.321Z,14.82
2017-11-04T10:17:18.934Z,14.45
2017-11-04T10:19:45.541Z,14.10
2017-11-04T10:22:12.708Z,15.10
2017-11-04T10:24:39.942Z,14.45
2017-11-04T10:27:06.542Z,13.70
2017-11-04T10:29:33.101Z,13.50
2017-11-04T10:31:59.599Z,15.20
2017-11-04T10:34:26.217Z,15.20
2017-11-04T10:36:52.709Z,13.52
2017-11-04T10:39:19.178Z,12.95
2017-11-04T10:41:45.697Z,12.90
2017-11-04T10:44:12.156Z,15.40
2017-11-04T10:46:38.583Z,12.65
2017-11-04T10:49:05.815Z,12.35
2017-11-04T10:51:32.331Z,11.90
2017-11-04T10:53:58.848Z,11.80
2017-11-04T10:56:25.554Z,12.85
2017-11-04T10:58:52.014Z,11.90
2017-11-04T11:01:18.566Z,11.70
2017-11-04T11:03:45.840Z,12.20
2017-11-04T11:06:12.398Z,11.20
2017-11-04T11:08:39.671Z,11.52
2017-11-04T11:11:06.945Z,11.88
2017-11-04T11:13:34.323Z,11.55
2017-11-04T11:16:01.552Z,10.70
2017-11-04T11:18:28.049Z,10.00
2017-11-04T11:20:54.677Z,10.57
2017-11-04T11:23:21.175Z,10.50
2017-11-04T11:25:47.603Z,10.80
2017-11-04T11:28:14.085Z,10.23
2017-11-04T11:30:40.644Z,10.30
2017-11-04T11:33:07.094Z,10.60
2017-11-04T11:35:33.574Z,11.35
2017-11-04T11:38:00.075Z,12.32
2017-11-04T11:40:26.670Z,9.18
2017-11-04T11:42:54.020Z,9.88
2017-11-04T11:45:20.488Z,9.70
2017-11-04T11:47:47.756Z,10.30
2017-11-04T11:50:14.344Z,9.30
2017-11-04T11:52:40.856Z,9.70
2017-11-04T11:55:07.454Z,9.90
2017-11-04T11:57:34.730Z,10.13
2017-11-04T12:00:01.394Z,10.00
2017-11-04T12:02:27.952Z,9.40
2017-11-04T12:04:54.508Z,8.80
2017-11-04T12:07:21.059Z,9.45
2017-11-04T12:09:47.737Z,9.75
2017-11-04T12:12:14.220Z,8.90
2017-11-04T12:14:40.744Z,9.40
2017-11-04T12:17:07.225Z,9.07
2017-11-04T12:19:33.715Z,9.80
2017-11-04T12:22:00.420Z,9.73
2017-11-04T12:24:26.873Z,9.37
2017-11-04T12:26:53.339Z,9.32
2017-11-04T12:29:19.886Z,8.55
2017-11-04T12:31:47.160Z,8.77
2017-11-04T12:34:14.128Z,9.05
2017-11-04T12:36:40.686Z,9.30
2017-11-04T12:39:07.162Z,9.45
2017-11-04T12:41:34.930Z,9.40
2017-11-04T12:44:01.384Z,10.50
2017-11-04T12:46:28.658Z,9.60
2017-11-04T12:48:55.935Z,9.75
2017-11-04T12:51:22.484Z,12.30
2017-11-04T12:53:49.668Z,11.90
2017-11-04T12:56:16.225Z,11.05
2017-11-04T12:58:42.987Z,27.60
2017-11-04T13:01:09.470Z,11.10
2017-11-04T13:03:36.000Z,11.30
2017-11-04T13:06:03.275Z,14.18
2017-11-04T13:08:29.700Z,12.15
2017-11-04T13:10:56.169Z,48.63
2017-11-04T13:13:23.461Z,17.37
2017-11-04T13:15:50.708Z,15.63
2017-11-04T13:18:17.306Z,19.17
2017-11-04T13:20:43.852Z,18.17
2017-11-04T13:23:11.740Z,17.60
2017-11-04T13:25:39.116Z,18.23
2017-11-04T13:28:06.354Z,15.98
2017-11-04T13:30:34.076Z,18.20
2017-11-04T13:33:01.350Z,15.80
2017-11-04T13:35:27.993Z,16.37
2017-11-04T13:37:55.246Z,11.80
2017-11-04T13:40:21.742Z,11.57
2017-11-04T13:42:49.017Z,10.75
2017-11-04T13:45:15.575Z,13.57
2017-11-04T13:47:42.853Z,21.62
2017-11-04T13:50:09.410Z,55.42
2017-11-04T13:52:36.067Z,44.47
2017-11-04T13:55:03.340Z,12.00
2017-11-04T13:57:30.617Z,18.17
2017-11-04T13:59:57.891Z,16.35
2017-11-04T14:02:25.621Z,11.00
2017-11-04T14:04:52.238Z,12.20
2017-11-04T14:07:18.792Z,11.40
2017-11-04T14:09:46.067Z,11.20
2017-11-04T14:12:12.507Z,10.90
2017-11-04T14:14:39.798Z,11.38
2017-11-04T14:17:06.992Z,11.30
2017-11-04T14:19:33.780Z,11.10
2017-11-04T14:22:00.293Z,11.00
2017-11-04T14:24:26.788Z,11.25
2017-11-04T14:26:53.311Z,11.93
2017-11-04T14:29:20.356Z,12.00
2017-11-04T14:31:49.184Z,12.43
2017-11-04T14:34:15.750Z,13.10
2017-11-04T14:36:43.119Z,12.30
2017-11-04T14:39:10.305Z,11.75
2017-11-04T14:41:36.956Z,16.80
2017-11-04T14:44:03.513Z,15.85
2017-11-04T14:46:30.069Z,11.80
2017-11-04T14:48:57.304Z,12.57
2017-11-04T14:51:23.739Z,12.68
2017-11-04T14:53:50.258Z,12.80
2017-11-04T14:56:16.730Z,12.60
2017-11-04T14:58:43.275Z,18.00
2017-11-04T15:01:09.829Z,15.85
2017-11-04T15:03:36.387Z,17.00
2017-11-04T15:06:02.873Z,14.52
2017-11-04T15:08:30.426Z,14.90
2017-11-04T15:10:56.986Z,14.60
2017-11-04T15:13:24.260Z,14.45
2017-11-04T15:15:52.018Z,43.72
2017-11-04T15:18:19.322Z,19.58
2017-11-04T15:20:45.884Z,15.38
2017-11-04T15:23:12.326Z,15.10
2017-11-04T15:25:39.608Z,14.90
2017-11-04T15:28:06.065Z,27.17
2017-11-04T15:30:32.517Z,19.75
2017-11-04T15:32:59.795Z,19.45
2017-11-04T15:35:27.361Z,29.02
2017-11-04T15:37:54.649Z,19.90
2017-11-04T15:40:21.841Z,17.37
2017-11-04T15:42:48.380Z,18.52
2017-11-04T15:45:15.603Z,20.07
2017-11-04T15:47:42.043Z,18.42
2017-11-04T15:50:08.566Z,18.58
2017-11-04T15:52:35.842Z,14.68
2017-11-04T15:55:03.119Z,16.90
2017-11-04T15:57:29.674Z,15.40
2017-11-04T15:59:56.910Z,15.70
2017-11-04T16:02:23.404Z,16.12
2017-11-04T16:04:50.678Z,17.30
2017-11-04T16:07:17.764Z,17.98
2017-11-04T16:09:44.993Z,17.50
2017-11-04T16:12:12.298Z,19.58
2017-11-04T16:14:39.572Z,17.95
2017-11-04T16:17:06.846Z,18.10
2017-11-04T16:19:34.122Z,20.30
2017-11-04T16:22:01.395Z,19.02
2017-11-04T16:24:27.866Z,20.93
2017-11-04T16:26:54.411Z,20.12
2017-11-04T16:29:20.969Z,19.60
2017-11-04T16:31:47.530Z,19.58
2017-11-04T16:34:14.669Z,20.05
2017-11-04T16:36:41.979Z,25.55
2017-11-04T16:39:08.533Z,19.95
2017-11-04T16:41:35.471Z,18.00
2017-11-04T16:44:01.962Z,18.90
2017-11-04T16:46:29.434Z,18.62
2017-11-04T16:48:56.712Z,20.08
2017-11-04T16:51:23.190Z,20.62
2017-11-04T16:53:49.726Z,21.17
2017-11-04T16:56:16.998Z,22.10
2017-11-04T16:58:43.468Z,22.70
2017-11-04T17:01:09.934Z,22.40
2017-11-04T17:03:36.462Z,24.58
2017-11-04T17:06:03.665Z,27.00
2017-11-04T17:08:30.199Z,47.92
2017-11-04T17:10:57.431Z,27.17
2017-11-04T17:13:23.930Z,24.80
2017-11-04T17:15:51.141Z,27.52
2017-11-04T17:18:17.665Z,28.45
2017-11-04T17:20:44.220Z,25.17
2017-11-04T17:23:11.492Z,24.05
2017-11-04T17:25:38.772Z,20.62
2017-11-04T17:28:05.324Z,22.25
2017-11-04T17:30:31.886Z,23.67
2017-11-04T17:32:58.373Z,22.40
2017-11-04T17:35:24.898Z,24.55
2017-11-04T17:37:51.441Z,25.27
2017-11-04T17:40:18.732Z,24.50
2017-11-04T17:42:46.110Z,24.17
2017-11-04T17:45:12.668Z,23.07
2017-11-04T17:47:40.465Z,24.02
2017-11-04T17:50:07.114Z,22.50
2017-11-04T17:52:34.399Z,24.15
2017-11-04T17:55:01.121Z,23.33
2017-11-04T17:57:27.631Z,22.70
2017-11-04T17:59:54.378Z,24.08
2017-11-04T18:02:21.134Z,22.70
2017-11-04T18:04:48.358Z,23.15
2017-11-04T18:07:15.785Z,21.83
2017-11-04T18:09:42.980Z,22.40
2017-11-04T18:12:09.560Z,23.40
2017-11-04T18:14:36.179Z,22.65
2017-11-04T18:17:03.033Z,22.60
2017-11-04T18:19:30.255Z,21.17
2017-11-04T18:21:57.049Z,24.50
2017-11-04T18:24:24.353Z,25.75
2017-11-04T18:26:51.015Z,30.90
2017-11-04T18:29:17.594Z,28.92
2017-11-04T18:31:44.133Z,32.80
2017-11-04T18:34:14.678Z,53.75
2017-11-04T18:36:41.964Z,36.05
2017-11-04T18:39:09.222Z,50.10
2017-11-04T18:41:35.995Z,53.85
2017-11-04T18:44:03.368Z,56.58
2017-11-04T18:46:30.336Z,33.97
2017-11-04T18:48:57.607Z,47.17
2017-11-04T18:51:24.372Z,45.15
2017-11-04T18:53:52.680Z,44.10
2017-11-04T18:56:21.683Z,44.40
2017-11-04T18:58:49.269Z,59.67
2017-11-04T19:01:16.130Z,55.53
2017-11-04T19:03:42.994Z,34.60
2017-11-04T19:06:10.369Z,55.97
2017-11-04T19:08:37.445Z,69.97
2017-11-04T19:11:04.206Z,35.70
2017-11-04T19:13:31.315Z,39.67
2017-11-04T19:15:58.241Z,39.22
2017-11-04T19:18:25.110Z,38.50
2017-11-04T19:20:51.869Z,44.10
2017-11-04T19:23:18.421Z,39.22
2017-11-04T19:25:45.703Z,41.08
2017-11-04T19:28:12.159Z,41.72
2017-11-04T19:30:39.562Z,41.05
2017-11-04T19:33:14.798Z,38.40
2017-11-04T19:35:41.963Z,33.50
2017-11-04T19:38:08.526Z,26.80
2017-11-04T19:40:37.418Z,25.50
2017-11-04T19:43:04.805Z,25.15
2017-11-04T19:45:31.367Z,25.00
2017-11-04T19:48:04.264Z,25.42
2017-11-04T19:50:30.815Z,26.12
2017-11-04T19:52:57.380Z,26.12
2017-11-04T19:55:24.049Z,24.08
2017-11-04T19:57:50.803Z,24.40
2017-11-04T20:00:18.488Z,23.95
2017-11-04T20:02:45.457Z,24.20
2017-11-04T20:05:20.604Z,23.20
2017-11-04T20:07:47.435Z,24.17
2017-11-04T20:10:13.939Z,23.75
2017-11-04T20:12:41.817Z,24.73
2017-11-04T20:15:08.315Z,25.35
2017-11-04T20:17:36.057Z,25.10
2017-11-04T20:20:03.841Z,29.70
2017-11-04T20:22:32.037Z,30.15
2017-11-04T20:24:59.210Z,27.42
2017-11-04T20:27:26.177Z,24.30
2017-11-04T20:29:54.991Z,27.50
2017-11-04T20:32:21.647Z,25.80
2017-11-04T20:34:48.313Z,24.25
2017-11-04T20:37:14.966Z,24.08
2017-11-04T20:39:44.388Z,24.10
2017-11-04T20:42:11.358Z,23.40
2017-11-04T20:44:37.955Z,22.52
2017-11-04T20:47:04.473Z,23.08
2017-11-04T20:49:41.566Z,23.40
2017-11-04T20:52:08.122Z,24.37
2017-11-04T20:54:34.683Z,24.10
2017-11-04T20:57:02.230Z,22.70
2017-11-04T20:59:29.285Z,22.85
2017-11-04T21:01:55.789Z,22.77
2017-11-04T21:04:23.065Z,23.15
2017-11-04T21:06:49.634Z,23.75
2017-11-04T21:09:16.767Z,25.00
2017-11-04T21:11:43.971Z,23.80
2017-11-04T21:14:10.527Z,23.20
2017-11-04T21:16:39.066Z,22.52
2017-11-04T21:19:12.439Z,22.67
2017-11-04T21:21:39.101Z,22.70
2017-11-04T21:24:05.579Z,24.60
2017-11-04T21:26:32.019Z,23.60
2017-11-04T21:29:10.844Z,24.70
2017-11-04T21:31:37.399Z,24.20
2017-11-04T21:34:04.779Z,24.75
2017-11-04T21:36:32.357Z,24.50
2017-11-04T21:38:59.330Z,24.30
2017-11-04T21:41:25.850Z,23.73
2017-11-04T21:43:52.447Z,24.48
2017-11-04T21:46:24.116Z,24.77
2017-11-04T21:48:50.625Z,25.45
2017-11-04T21:51:17.073Z,25.60
2017-11-04T21:53:43.587Z,24.50
2017-11-04T21:56:14.143Z,26.00
2017-11-04T21:58:40.697Z,23.95
2017-11-04T22:01:07.201Z,24.12
2017-11-04T22:03:35.140Z,23.70
2017-11-04T22:06:01.602Z,22.63
2017-11-04T22:08:28.110Z,22.63
2017-11-04T22:10:54.712Z,22.98
2017-11-04T22:13:21.272Z,22.15
2017-11-04T22:15:47.932Z,24.75
2017-11-04T22:18:14.493Z,25.75
2017-11-04T22:20:41.053Z,26.75
2017-11-04T22:23:07.674Z,26.33
2017-11-04T22:25:35.618Z,28.50
2017-11-04T22:28:02.257Z,26.25
2017-11-04T22:30:29.633Z,26.17
2017-11-04T22:32:57.319Z,21.60
2017-11-04T22:35:23.981Z,21.00
2017-11-04T22:37:50.826Z,20.52
2017-11-04T22:40:17.505Z,19.25
2017-11-04T22:42:43.973Z,19.80
2017-11-04T22:45:10.581Z,19.85
2017-11-04T22:47:37.595Z,20.73
2017-11-04T22:50:04.263Z,19.45
2017-11-04T22:52:30.806Z,20.42
2017-11-04T22:54:58.097Z,20.08
2017-11-04T22:57:24.699Z,20.05
2017-11-04T22:59:51.172Z,19.02
2017-11-04T23:02:17.748Z,19.75
2017-11-04T23:04:45.034Z,18.92
2017-11-04T23:07:11.590Z,20.98
2017-11-04T23:09:42.456Z,24.65
2017-11-04T23:12:09.008Z,22.13
2017-11-04T23:14:35.461Z,22.23
2017-11-04T23:17:02.650Z,20.97
2017-11-04T23:19:29.125Z,21.85
2017-11-04T23:21:55.589Z,18.73
2017-11-04T23:24:22.026Z,19.33
2017-11-04T23:26:48.663Z,19.08
2017-11-04T23:29:15.321Z,18.85
2017-11-04T23:31:42.569Z,18.12
2017-11-04T23:34:09.000Z,19.45
2017-11-04T23:36:35.478Z,19.50
2017-11-04T23:39:01.958Z,19.25
2017-11-04T23:41:29.758Z,18.90
2017-11-04T23:43:56.308Z,18.50
2017-11-04T23:46:23.555Z,17.42
2017-11-04T23:48:49.962Z,17.20
2017-11-04T23:51:16.496Z,17.80
2017-11-04T23:53:43.873Z,17.87
2017-11-04T23:56:10.430Z,18.20
2017-11-04T23:58:36.917Z,18.17
